createdAt,value
2018-06-27T00:14:08.475Z,2.72
2018-06-27T01:22:44.814Z,2.80
2018-06-27T01:39:08.032Z,2.65
2018-06-27T01:39:44.239Z,2.83
2018-06-27T01:40:25.655Z,2.80
2018-06-27T01:41:05.944Z,2.60
2018-06-27T01:46:31.756Z,2.50
2018-06-27T01:57:30.806Z,3.05
2018-06-27T02:35:28.683Z,2.62
2018-06-27T02:36:05.438Z,2.80
2018-06-27T02:37:58.416Z,2.90
2018-06-27T04:13:31.335Z,3.22
2018-06-27T04:14:06.256Z,3.17
2018-06-27T04:14:40.377Z,3.12
2018-06-27T04:15:16.005Z,3.10
2018-06-27T04:15:50.112Z,3.40
2018-06-27T04:16:23.341Z,3.22
2018-06-27T04:16:59.083Z,3.22
2018-06-27T04:25:32.937Z,3.10
2018-06-27T04:30:10.384Z,3.37
2018-06-27T04:48:01.569Z,3.35
2018-06-27T05:02:24.297Z,3.28
2018-06-27T05:02:58.079Z,3.55
2018-06-27T05:03:33.934Z,3.17
2018-06-27T05:04:08.081Z,3.28
2018-06-27T05:04:43.230Z,3.00
2018-06-27T05:05:19.027Z,3.10
2018-06-27T05:05:57.020Z,2.97
2018-06-27T05:06:31.643Z,3.53
2018-06-27T05:07:05.711Z,3.60
2018-06-27T05:07:40.507Z,3.92
2018-06-27T05:11:36.079Z,3.65
2018-06-27T05:53:05.524Z,3.50
2018-06-27T05:53:39.864Z,3.83
2018-06-27T05:54:14.822Z,3.78
2018-06-27T08:21:31.123Z,2.37
2018-06-27T08:23:06.840Z,3.58
2018-06-27T08:36:58.826Z,2.03
2018-06-27T08:37:31.868Z,1.98
2018-06-27T08:38:04.923Z,2.00
2018-06-27T08:38:37.973Z,2.10
2018-06-27T08:39:11.025Z,2.10
2018-06-27T08:39:44.080Z,2.40
2018-06-27T08:40:17.882Z,2.22
2018-06-27T08:40:50.927Z,2.20
2018-06-27T08:41:23.978Z,2.58
2018-06-27T08:41:57.041Z,2.20
2018-06-27T08:42:31.895Z,2.35
2018-06-27T08:43:04.926Z,2.60
2018-06-27T08:43:38.086Z,2.40
2018-06-27T08:44:11.054Z,2.30
2018-06-27T08:44:44.091Z,1.92
2018-06-27T08:45:18.873Z,2.33
2018-06-27T08:45:51.908Z,2.00
2018-06-27T08:46:25.188Z,2.25
2018-06-27T08:47:01.738Z,2.47
2018-06-27T08:47:35.564Z,2.10
2018-06-27T08:48:08.592Z,2.37
2018-06-27T08:48:44.147Z,1.90
2018-06-27T08:49:17.182Z,2.10
2018-06-27T08:49:50.277Z,1.90
2018-06-27T08:50:24.043Z,2.20
2018-06-27T08:50:57.100Z,2.08
2018-06-27T08:51:30.167Z,2.25
2018-06-27T08:52:03.693Z,2.08
2018-06-27T08:52:36.737Z,2.22
2018-06-27T08:53:09.779Z,2.12
2018-06-27T08:53:42.809Z,1.98
2018-06-27T08:54:15.849Z,2.17
2018-06-27T08:54:48.892Z,1.95
2018-06-27T08:55:22.711Z,2.25
2018-06-27T08:55:55.752Z,2.40
2018-06-27T08:56:29.145Z,2.05
2018-06-27T08:57:02.173Z,2.00
2018-06-27T08:57:35.212Z,2.58
2018-06-27T08:58:08.254Z,2.08
2018-06-27T08:58:41.425Z,2.22
2018-06-27T08:59:14.580Z,2.25
2018-06-27T08:59:47.653Z,2.30
2018-06-27T09:00:20.696Z,2.45
2018-06-27T09:00:53.744Z,2.17
2018-06-27T09:01:27.593Z,2.05
2018-06-27T09:02:00.661Z,2.00
2018-06-27T09:02:33.700Z,2.25
2018-06-27T09:03:06.749Z,1.95
2018-06-27T09:03:40.564Z,2.10
2018-06-27T09:04:15.033Z,2.10
2018-06-27T09:04:48.079Z,2.20
2018-06-27T09:05:21.136Z,2.00
2018-06-27T09:05:54.173Z,1.83
2018-06-27T09:06:28.167Z,2.20
2018-06-27T09:07:01.196Z,2.00
2018-06-27T09:07:34.233Z,2.33
2018-06-27T09:08:08.040Z,2.10
2018-06-27T09:08:47.621Z,2.08
2018-06-27T09:09:20.666Z,2.10
2018-06-27T09:09:53.704Z,2.30
2018-06-27T09:10:27.525Z,2.00
2018-06-27T09:11:00.777Z,2.05
2018-06-27T09:11:35.317Z,2.08
2018-06-27T09:12:08.424Z,1.90
2018-06-27T09:12:41.468Z,2.20
2018-06-27T09:13:14.508Z,2.20
2018-06-27T09:13:47.560Z,1.80
2018-06-27T09:14:20.616Z,1.90
2018-06-27T09:14:53.644Z,2.15
2018-06-27T09:15:26.677Z,1.65
2018-06-27T09:16:06.746Z,1.77
2018-06-27T09:16:40.544Z,1.80
2018-06-27T09:17:14.384Z,1.70
2018-06-27T09:17:47.465Z,1.70
2018-06-27T09:18:20.907Z,1.67
2018-06-27T09:18:54.394Z,1.70
2018-06-27T09:19:27.449Z,1.85
2018-06-27T09:20:00.509Z,1.83
2018-06-27T09:20:33.541Z,1.80
2018-06-27T09:21:06.606Z,1.70
2018-06-27T09:21:39.645Z,1.73
2018-06-27T09:22:13.509Z,1.60
2018-06-27T09:22:46.630Z,1.58
2018-06-27T09:23:24.593Z,1.58
2018-06-27T09:23:57.632Z,1.52
2018-06-27T09:24:30.686Z,1.48
2018-06-27T09:25:03.713Z,1.25
2018-06-27T09:25:36.858Z,1.73
2018-06-27T09:29:14.691Z,1.30
2018-06-27T09:29:47.846Z,1.40
2018-06-27T09:30:20.913Z,1.40
2018-06-27T09:30:54.146Z,1.50
2018-06-27T09:31:29.655Z,1.60
2018-06-27T09:32:02.742Z,1.70
2018-06-27T09:32:35.821Z,1.67
2018-06-27T09:33:08.943Z,1.60
2018-06-27T09:33:57.081Z,1.35
2018-06-27T09:34:34.646Z,1.70
2018-06-27T09:43:03.128Z,1.62
2018-06-27T09:43:38.953Z,1.60
2018-06-27T09:44:27.368Z,1.45
2018-06-27T09:50:29.617Z,1.37
2018-06-27T09:51:37.237Z,1.30
2018-06-27T09:53:16.545Z,1.65
2018-06-27T09:54:09.362Z,1.42
2018-06-27T09:54:44.200Z,1.58
2018-06-27T10:00:32.769Z,1.40
2018-06-27T10:01:10.364Z,1.60
2018-06-27T10:01:43.717Z,1.77
2018-06-27T10:02:18.373Z,1.80
2018-06-27T10:02:54.290Z,1.67
2018-06-27T10:03:27.407Z,1.50
2018-06-27T10:04:11.832Z,1.58
2018-06-27T10:04:44.958Z,1.80
2018-06-27T10:05:21.083Z,1.83
2018-06-27T10:05:58.638Z,1.80
2018-06-27T10:06:32.507Z,1.65
2018-06-27T10:07:05.587Z,1.70
2018-06-27T10:07:38.945Z,1.73
2018-06-27T10:08:11.969Z,1.50
2018-06-27T10:08:45.052Z,1.70
2018-06-27T10:09:18.073Z,1.60
2018-06-27T10:09:51.131Z,1.70
2018-06-27T10:10:24.209Z,1.50
2018-06-27T10:10:58.863Z,1.42
2018-06-27T10:11:31.925Z,1.60
2018-06-27T10:12:06.076Z,1.70
2018-06-27T10:12:39.145Z,1.48
2018-06-27T10:13:12.755Z,1.50
2018-06-27T10:13:46.029Z,1.73
2018-06-27T10:14:19.729Z,1.73
2018-06-27T10:14:52.802Z,1.85
2018-06-27T10:15:25.905Z,1.60
2018-06-27T10:15:59.865Z,1.67
2018-06-27T10:16:33.068Z,1.52
2018-06-27T10:17:06.112Z,1.77
2018-06-27T10:17:39.188Z,1.55
2018-06-27T10:18:12.260Z,1.30
2018-06-27T10:18:45.345Z,1.60
2018-06-27T10:19:18.412Z,1.50
2018-06-27T10:19:51.468Z,1.80
2018-06-27T10:20:24.505Z,1.30
2018-06-27T10:20:57.561Z,1.23
2018-06-27T10:21:38.515Z,1.48
2018-06-27T10:22:11.589Z,1.40
2018-06-27T10:22:44.682Z,1.65
2018-06-27T10:23:17.703Z,1.73
2018-06-27T10:23:50.744Z,1.60
2018-06-27T10:24:23.789Z,1.55
2018-06-27T10:24:56.855Z,1.40
2018-06-27T10:25:29.899Z,1.20
2018-06-27T10:26:02.949Z,1.40
2018-06-27T10:26:36.001Z,1.50
2018-06-27T10:27:09.831Z,1.50
2018-06-27T10:27:42.898Z,1.20
2018-06-27T10:28:15.941Z,1.52
2018-06-27T10:28:49.741Z,1.40
2018-06-27T10:29:22.785Z,1.50
2018-06-27T10:29:55.845Z,1.55
2018-06-27T10:30:28.913Z,1.45
2018-06-27T10:31:03.084Z,2.05
2018-06-27T10:31:36.137Z,1.50
2018-06-27T10:32:09.945Z,1.48
2018-06-27T10:32:46.248Z,1.48
2018-06-27T10:33:19.358Z,1.40
2018-06-27T10:33:52.495Z,1.45
2018-06-27T10:34:25.548Z,1.60
2018-06-27T10:34:58.657Z,1.50
2018-06-27T10:35:31.661Z,1.70
2018-06-27T10:36:04.704Z,1.40
2018-06-27T10:36:37.766Z,1.37
2018-06-27T10:37:10.803Z,1.65
2018-06-27T10:37:43.836Z,1.73
2018-06-27T10:38:16.921Z,1.67
2018-06-27T10:38:54.102Z,1.30
2018-06-27T10:39:31.300Z,1.58
2018-06-27T10:40:04.349Z,1.42
2018-06-27T10:40:38.200Z,1.75
2018-06-27T10:41:12.022Z,1.45
2018-06-27T10:41:45.874Z,1.73
2018-06-27T10:42:18.910Z,1.55
2018-06-27T10:42:52.707Z,1.70
2018-06-27T10:43:25.774Z,1.52
2018-06-27T10:43:58.814Z,1.60
2018-06-27T10:44:31.885Z,1.50
2018-06-27T10:45:04.949Z,1.80
2018-06-27T10:45:37.984Z,1.67
2018-06-27T10:46:11.047Z,1.70
2018-06-27T10:46:45.034Z,1.40
2018-06-27T10:47:18.058Z,1.90
2018-06-27T10:47:51.904Z,1.60
2018-06-27T10:48:24.966Z,1.70
2018-06-27T10:48:58.011Z,1.48
2018-06-27T10:49:31.048Z,1.40
2018-06-27T10:50:11.857Z,1.50
2018-06-27T10:50:44.919Z,1.60
2018-06-27T10:51:17.961Z,1.30
2018-06-27T10:51:51.379Z,1.40
2018-06-27T10:52:24.418Z,1.42
2018-06-27T10:52:58.454Z,1.30
2018-06-27T10:53:31.480Z,1.35
2018-06-27T10:54:04.533Z,1.60
2018-06-27T10:54:37.572Z,1.45
2018-06-27T10:55:10.625Z,1.20
2018-06-27T10:55:43.674Z,1.40
2018-06-27T10:56:16.944Z,1.42
2018-06-27T10:56:50.750Z,1.60
2018-06-27T10:57:24.992Z,1.42
2018-06-27T10:57:58.056Z,1.70
2018-06-27T10:58:31.104Z,1.65
2018-06-27T10:59:07.714Z,1.70
2018-06-27T10:59:40.767Z,1.70
2018-06-27T11:00:13.792Z,1.92
2018-06-27T11:00:46.822Z,1.87
2018-06-27T11:01:19.849Z,1.98
2018-06-27T11:01:53.652Z,1.73
2018-06-27T11:02:26.689Z,1.50
2018-06-27T11:02:59.756Z,1.60
2018-06-27T11:03:32.816Z,1.70
2018-06-27T11:04:05.882Z,1.40
2018-06-27T11:04:38.928Z,1.80
2018-06-27T11:05:12.011Z,1.60
2018-06-27T11:05:45.018Z,1.87
2018-06-27T11:06:18.068Z,1.48
2018-06-27T11:06:51.104Z,1.67
2018-06-27T11:07:24.145Z,1.70
2018-06-27T11:07:57.465Z,1.70
2018-06-27T11:08:30.497Z,1.65
2018-06-27T11:09:03.559Z,2.28
2018-06-27T11:09:39.841Z,1.65
2018-06-27T11:10:12.891Z,1.85
2018-06-27T11:10:45.940Z,1.65
2018-06-27T11:11:20.355Z,1.80
2018-06-27T11:11:53.385Z,1.70
2018-06-27T11:12:26.437Z,1.80
2018-06-27T11:13:00.261Z,1.70
2018-06-27T11:13:34.077Z,1.73
2018-06-27T11:14:07.149Z,1.80
2018-06-27T11:14:40.157Z,1.70
2018-06-27T11:15:13.202Z,1.90
2018-06-27T11:15:46.264Z,1.60
2018-06-27T11:16:19.309Z,1.90
2018-06-27T11:16:52.352Z,2.20
2018-06-27T11:17:25.402Z,1.80
2018-06-27T11:17:58.459Z,1.70
2018-06-27T11:18:33.017Z,1.90
2018-06-27T11:19:06.057Z,1.90
2018-06-27T11:19:39.091Z,1.80
2018-06-27T11:20:12.141Z,2.05
2018-06-27T11:20:45.193Z,1.70
2018-06-27T11:21:18.228Z,1.87
2018-06-27T11:21:51.261Z,1.77
2018-06-27T11:22:24.309Z,1.65
2018-06-27T11:22:57.361Z,1.50
2018-06-27T11:23:31.160Z,1.87
2018-06-27T11:24:04.201Z,2.00
2018-06-27T11:24:37.232Z,1.90
2018-06-27T11:25:10.277Z,1.92
2018-06-27T11:25:43.313Z,2.58
2018-06-27T11:26:16.341Z,2.05
2018-06-27T11:26:50.193Z,1.77
2018-06-27T11:27:23.208Z,1.67
2018-06-27T11:27:57.035Z,2.03
2018-06-27T11:28:30.057Z,1.70
2018-06-27T11:29:03.112Z,1.85
2018-06-27T11:29:36.146Z,2.10
2018-06-27T11:30:09.191Z,1.98
2018-06-27T11:30:43.020Z,2.22
2018-06-27T11:31:16.040Z,1.77
2018-06-27T11:31:49.108Z,2.10
2018-06-27T11:32:22.149Z,1.85
2018-06-27T11:32:55.184Z,1.73
2018-06-27T11:33:28.236Z,2.00
2018-06-27T11:34:01.278Z,2.05
2018-06-27T11:34:34.326Z,2.10
2018-06-27T11:35:07.406Z,2.03
2018-06-27T11:35:40.448Z,2.45
2018-06-27T11:36:13.503Z,1.92
2018-06-27T11:36:46.561Z,1.80
2018-06-27T11:37:19.608Z,2.30
2018-06-27T11:48:46.612Z,2.00
2018-06-27T11:49:19.680Z,2.30
2018-06-27T11:50:57.835Z,2.30
2018-06-27T11:51:30.846Z,2.25
2018-06-27T11:52:04.675Z,2.15
2018-06-27T11:53:42.759Z,2.10
2018-06-27T11:54:15.813Z,2.10
2018-06-27T11:54:48.869Z,2.23
2018-06-27T11:55:21.904Z,2.00
2018-06-27T11:55:54.954Z,2.20
2018-06-27T11:56:28.010Z,1.95
2018-06-27T11:58:08.380Z,2.00
2018-06-27T11:58:41.432Z,2.10
2018-06-27T11:59:14.474Z,2.00
2018-06-27T12:00:52.591Z,2.62
2018-06-27T12:01:25.612Z,2.53
2018-06-27T12:01:58.660Z,1.98
2018-06-27T12:02:31.701Z,2.25
2018-06-27T12:03:04.756Z,2.20
2018-06-27T12:03:37.800Z,2.60
2018-06-27T12:04:10.865Z,2.15
2018-06-27T12:04:44.678Z,2.35
2018-06-27T12:05:17.716Z,2.30
2018-06-27T12:05:50.753Z,2.30
2018-06-27T12:06:23.801Z,2.55
2018-06-27T12:06:56.837Z,2.00
2018-06-27T12:07:29.921Z,2.00
2018-06-27T12:08:02.965Z,2.25
2018-06-27T12:08:36.074Z,2.05
2018-06-27T12:09:09.096Z,2.20
2018-06-27T12:09:42.173Z,2.15
2018-06-27T12:10:15.213Z,2.47
2018-06-27T12:10:48.253Z,2.40
2018-06-27T12:11:21.309Z,2.30
2018-06-27T12:11:54.344Z,2.35
2018-06-27T12:12:27.677Z,2.53
2018-06-27T12:13:00.728Z,2.28
2018-06-27T12:13:33.824Z,1.98
2018-06-27T12:14:06.900Z,2.15
2018-06-27T12:14:40.684Z,2.45
2018-06-27T12:15:13.728Z,2.50
2018-06-27T12:15:46.761Z,2.10
2018-06-27T12:16:19.794Z,2.45
2018-06-27T12:16:52.890Z,1.90
2018-06-27T12:17:25.881Z,2.03
2018-06-27T12:17:58.936Z,2.28
2018-06-27T12:18:32.745Z,2.08
2018-06-27T12:19:05.813Z,1.70
2018-06-27T12:19:38.845Z,2.05
2018-06-27T12:20:13.563Z,2.30
2018-06-27T12:20:46.636Z,1.87
2018-06-27T12:21:19.673Z,2.00
2018-06-27T12:21:53.468Z,1.80
2018-06-27T12:22:26.505Z,2.25
2018-06-27T12:22:59.560Z,1.83
2018-06-27T12:23:32.594Z,2.22
2018-06-27T12:24:09.252Z,2.03
2018-06-27T12:24:43.090Z,2.10
2018-06-27T12:25:16.143Z,1.90
2018-06-27T12:25:49.189Z,2.20
2018-06-27T12:26:22.283Z,2.20
2018-06-27T12:26:55.280Z,2.20
2018-06-27T12:27:28.330Z,2.10
2018-06-27T12:28:02.172Z,2.28
2018-06-27T12:28:35.251Z,2.60
2018-06-27T12:29:08.268Z,2.12
2018-06-27T12:29:42.082Z,2.20
2018-06-27T12:30:15.120Z,2.10
2018-06-27T12:30:49.790Z,2.05
2018-06-27T12:31:22.830Z,1.90
2018-06-27T12:31:56.672Z,2.20
2018-06-27T12:32:29.748Z,1.90
2018-06-27T12:33:04.255Z,2.05
2018-06-27T12:33:37.276Z,2.10
2018-06-27T12:34:11.333Z,2.00
2018-06-27T12:34:44.387Z,1.83
2018-06-27T12:35:17.433Z,2.10
2018-06-27T12:35:50.475Z,2.08
2018-06-27T12:36:23.519Z,1.90
2018-06-27T12:36:56.555Z,1.75
2018-06-27T12:37:30.368Z,2.10
2018-06-27T12:38:03.459Z,1.87
2018-06-27T12:38:36.529Z,1.90
2018-06-27T12:39:09.573Z,1.90
2018-06-27T12:39:42.628Z,2.10
2018-06-27T12:40:16.385Z,1.95
2018-06-27T12:40:49.418Z,1.90
2018-06-27T12:41:22.468Z,2.28
2018-06-27T12:41:55.524Z,2.08
2018-06-27T12:42:28.590Z,2.28
2018-06-27T12:43:01.631Z,1.80
2018-06-27T12:43:34.670Z,2.17
2018-06-27T12:44:07.795Z,1.80
2018-06-27T12:44:40.830Z,1.98
2018-06-27T12:45:14.113Z,1.73
2018-06-27T12:45:47.926Z,1.70
2018-06-27T12:46:20.993Z,1.67
2018-06-27T12:46:54.023Z,1.67
2018-06-27T12:47:27.071Z,1.60
2018-06-27T12:48:00.894Z,1.62
2018-06-27T12:48:33.953Z,1.73
2018-06-27T12:49:07.007Z,1.95
2018-06-27T12:49:40.091Z,1.90
2018-06-27T12:50:13.204Z,1.50
2018-06-27T12:50:46.199Z,1.75
2018-06-27T12:51:19.262Z,1.67
2018-06-27T12:51:52.309Z,1.62
2018-06-27T12:52:25.360Z,1.70
2018-06-27T12:52:58.404Z,1.90
2018-06-27T12:53:31.464Z,2.05
2018-06-27T12:54:05.301Z,1.70
2018-06-27T12:54:38.355Z,1.60
2018-06-27T12:55:11.639Z,2.12
2018-06-27T12:55:44.876Z,1.33
2018-06-27T12:56:17.921Z,1.90
2018-06-27T12:56:50.968Z,1.48
2018-06-27T12:57:24.041Z,1.60
2018-06-27T12:57:57.080Z,1.80
2018-06-27T12:58:30.133Z,1.73
2018-06-27T12:59:03.176Z,1.95
2018-06-27T12:59:36.283Z,1.95
2018-06-27T13:00:09.297Z,1.48
2018-06-27T13:00:43.104Z,1.87
2018-06-27T13:01:16.157Z,1.50
2018-06-27T13:01:49.192Z,1.75
2018-06-27T13:02:22.452Z,1.70
2018-06-27T13:02:55.469Z,1.87
2018-06-27T13:03:30.078Z,1.60
2018-06-27T13:04:03.071Z,1.58
2018-06-27T13:04:36.136Z,1.80
2018-06-27T13:05:09.164Z,1.55
2018-06-27T13:05:42.209Z,2.08
2018-06-27T13:06:15.244Z,1.95
2018-06-27T13:06:48.285Z,1.90
2018-06-27T13:07:21.332Z,1.52
2018-06-27T13:07:54.369Z,1.90
2018-06-27T13:08:27.434Z,1.77
2018-06-27T13:09:00.500Z,1.92
2018-06-27T13:09:33.520Z,1.60
2018-06-27T13:10:07.321Z,1.40
2018-06-27T13:10:41.120Z,1.48
2018-06-27T13:11:14.170Z,1.87
2018-06-27T13:11:47.221Z,1.60
2018-06-27T13:12:20.260Z,1.70
2018-06-27T13:12:53.304Z,1.80
2018-06-27T13:13:26.340Z,1.90
2018-06-27T13:13:59.383Z,1.60
2018-06-27T13:14:32.441Z,1.52
2018-06-27T13:15:05.473Z,2.03
2018-06-27T13:15:38.530Z,1.65
2018-06-27T13:16:11.726Z,1.90
2018-06-27T13:16:44.756Z,1.70
2018-06-27T13:17:17.798Z,2.00
2018-06-27T13:17:50.873Z,1.65
2018-06-27T13:18:23.936Z,1.67
2018-06-27T13:18:56.981Z,1.48
2018-06-27T13:19:30.019Z,1.70
2018-06-27T13:20:03.104Z,1.50
2018-06-27T13:20:36.140Z,1.67
2018-06-27T13:21:09.193Z,2.00
2018-06-27T13:21:42.226Z,1.90
2018-06-27T13:22:15.465Z,1.55
2018-06-27T13:22:48.727Z,1.45
2018-06-27T13:23:21.981Z,1.70
2018-06-27T13:23:55.232Z,1.58
2018-06-27T13:24:28.500Z,1.42
2018-06-27T13:25:01.761Z,1.67
2018-06-27T13:25:34.809Z,1.60
2018-06-27T13:26:07.860Z,1.80
2018-06-27T13:26:41.681Z,1.80
2018-06-27T13:27:14.877Z,1.60
2018-06-27T13:27:47.925Z,1.77
2018-06-27T13:28:20.953Z,1.52
2018-06-27T13:28:53.993Z,2.17
2018-06-27T13:29:27.136Z,1.90
2018-06-27T13:30:00.186Z,1.80
2018-06-27T13:30:33.228Z,1.80
2018-06-27T13:31:06.308Z,2.05
2018-06-27T13:31:39.333Z,1.87
2018-06-27T13:32:12.380Z,1.85
2018-06-27T13:32:46.401Z,1.75
2018-06-27T13:33:19.440Z,2.10
2018-06-27T13:33:52.482Z,2.00
2018-06-27T13:34:25.521Z,1.62
2018-06-27T13:34:59.432Z,2.08
2018-06-27T13:35:34.234Z,2.53
2018-06-27T13:36:07.589Z,2.10
2018-06-27T13:36:40.641Z,1.80
2018-06-27T13:37:13.694Z,2.10
2018-06-27T13:37:46.749Z,2.20
2018-06-27T13:38:19.780Z,2.30
2018-06-27T13:38:52.818Z,2.40
2018-06-27T13:39:25.862Z,2.40
2018-06-27T13:39:58.929Z,2.10
2018-06-27T13:40:33.493Z,2.08
2018-06-27T13:41:06.536Z,2.17
2018-06-27T13:41:39.609Z,2.45
2018-06-27T13:42:12.914Z,2.75
2018-06-27T13:42:45.982Z,2.53
2018-06-27T13:43:19.103Z,2.70
2018-06-27T13:43:52.124Z,2.53
2018-06-27T13:44:25.173Z,2.62
2018-06-27T13:44:58.220Z,2.60
2018-06-27T13:45:31.263Z,2.53
2018-06-27T13:46:04.359Z,2.25
2018-06-27T13:46:37.881Z,2.70
2018-06-27T13:47:11.740Z,2.25
2018-06-27T13:47:44.799Z,2.28
2018-06-27T13:48:17.868Z,2.72
2018-06-27T13:48:50.904Z,2.72
2018-06-27T13:49:23.941Z,3.05
2018-06-27T13:49:57.278Z,2.92
2018-06-27T13:50:30.299Z,2.72
2018-06-27T13:51:03.367Z,2.80
2018-06-27T13:51:36.438Z,2.78
2018-06-27T13:52:09.472Z,3.03
2018-06-27T13:52:49.181Z,2.47
2018-06-27T13:53:22.990Z,2.87
2018-06-27T13:53:56.041Z,2.90
2018-06-27T13:54:29.846Z,2.85
2018-06-27T13:55:03.665Z,3.10
2018-06-27T13:55:36.700Z,3.17
2018-06-27T13:56:17.020Z,3.00
2018-06-27T13:56:50.080Z,3.00
2018-06-27T13:57:23.137Z,2.75
2018-06-27T13:57:56.173Z,2.78
2018-06-27T13:58:29.211Z,2.67
2018-06-27T13:59:02.265Z,2.85
2018-06-27T13:59:35.324Z,3.00
2018-06-27T14:00:08.373Z,2.65
2018-06-27T14:00:42.196Z,3.30
2018-06-27T14:01:15.292Z,2.70
2018-06-27T14:01:48.328Z,3.25
2018-06-27T14:02:21.385Z,2.87
2018-06-27T14:02:54.437Z,2.78
2018-06-27T14:03:27.474Z,2.97
2018-06-27T14:04:00.512Z,2.53
2018-06-27T14:04:34.313Z,2.70
2018-06-27T14:05:08.135Z,2.83
2018-06-27T14:05:41.156Z,2.95
2018-06-27T14:06:14.442Z,2.92
2018-06-27T14:06:47.721Z,3.37
2018-06-27T14:07:20.977Z,3.55
2018-06-27T14:07:54.016Z,3.05
2018-06-27T14:08:27.049Z,3.10
2018-06-27T14:09:00.145Z,3.37
2018-06-27T14:09:33.966Z,3.28
2018-06-27T14:10:07.241Z,4.07
2018-06-27T14:10:40.309Z,3.00
2018-06-27T14:11:13.589Z,3.20
2018-06-27T14:11:46.654Z,2.90
2018-06-27T14:12:19.702Z,3.12
2018-06-27T14:12:52.776Z,3.47
2018-06-27T14:13:25.821Z,3.25
2018-06-27T14:13:58.857Z,3.20
2018-06-27T14:14:32.664Z,3.22
2018-06-27T14:15:05.717Z,3.58
2018-06-27T14:15:41.281Z,3.15
2018-06-27T14:16:14.318Z,3.40
2018-06-27T14:16:48.267Z,3.30
2018-06-27T14:17:21.284Z,3.42
2018-06-27T14:17:54.340Z,3.10
2018-06-27T14:18:27.513Z,3.47
2018-06-27T14:19:04.324Z,3.15
2018-06-27T14:19:38.149Z,3.55
2018-06-27T14:20:11.205Z,3.62
2018-06-27T14:20:44.248Z,3.83
2018-06-27T14:21:17.429Z,4.15
2018-06-27T14:21:51.229Z,3.40
2018-06-27T14:22:25.541Z,3.10
2018-06-27T14:23:05.516Z,3.50
2018-06-27T14:23:38.548Z,3.70
2018-06-27T14:24:14.029Z,3.70
2018-06-27T14:24:46.949Z,3.20
2018-06-27T14:25:20.997Z,3.62
2018-06-27T14:25:54.072Z,3.72
2018-06-27T14:26:30.853Z,3.50
2018-06-27T14:27:03.947Z,3.03
2018-06-27T14:27:37.026Z,3.58
2018-06-27T14:28:10.878Z,3.78
2018-06-27T14:28:43.965Z,3.30
2018-06-27T14:29:18.469Z,4.10
2018-06-27T14:29:51.494Z,3.62
2018-06-27T14:30:26.241Z,3.37
2018-06-27T14:31:00.205Z,3.58
2018-06-27T14:31:35.896Z,3.10
2018-06-27T14:32:08.963Z,3.47
2018-06-27T14:32:42.257Z,3.30
2018-06-27T14:33:15.360Z,3.20
2018-06-27T14:33:50.298Z,3.37
2018-06-27T14:34:23.337Z,3.00
2018-06-27T14:34:57.209Z,3.00
2018-06-27T14:35:31.876Z,3.15
2018-06-27T14:36:05.685Z,3.33
2018-06-27T14:36:38.735Z,3.40
2018-06-27T14:37:42.538Z,3.00
2018-06-27T14:38:15.581Z,3.28
2018-06-27T14:38:48.665Z,3.28
2018-06-27T14:39:21.734Z,3.20
2018-06-27T14:39:54.992Z,3.10
2018-06-27T14:40:28.092Z,3.03
2018-06-27T14:41:04.833Z,3.37
2018-06-27T14:41:37.933Z,2.70
2018-06-27T14:42:11.033Z,3.05
2018-06-27T14:42:44.872Z,2.80
2018-06-27T14:43:17.952Z,2.95
2018-06-27T14:43:51.814Z,3.62
2018-06-27T14:44:24.793Z,2.97
2018-06-27T14:44:57.865Z,3.28
2018-06-27T14:45:32.652Z,3.10
2018-06-27T14:46:06.492Z,3.10
2018-06-27T14:46:39.567Z,2.67
2018-06-27T14:47:12.603Z,3.05
2018-06-27T14:47:46.414Z,3.05
2018-06-27T14:48:19.657Z,2.75
2018-06-27T14:48:52.704Z,3.10
2018-06-27T14:49:25.934Z,3.17
2018-06-27T14:50:00.532Z,3.10
2018-06-27T14:50:35.286Z,2.92
2018-06-27T14:51:08.389Z,2.50
2018-06-27T14:52:04.487Z,2.80
2018-06-27T14:52:38.351Z,2.58
2018-06-27T14:53:11.444Z,2.70
2018-06-27T14:53:44.500Z,2.90
2018-06-27T14:54:17.573Z,2.62
2018-06-27T14:54:59.241Z,3.00
2018-06-27T14:55:33.189Z,2.53
2018-06-27T14:56:06.227Z,2.60
2018-06-27T14:56:40.220Z,3.67
2018-06-27T14:57:13.301Z,2.90
2018-06-27T14:57:46.340Z,2.80
2018-06-27T14:58:19.387Z,2.90
2018-06-27T14:58:52.456Z,2.92
2018-06-27T14:59:25.585Z,2.87
2018-06-27T14:59:58.573Z,2.60
2018-06-27T15:00:31.677Z,2.60
2018-06-27T15:01:05.684Z,2.78
2018-06-27T15:01:38.777Z,2.85
2018-06-27T15:02:11.829Z,2.60
2018-06-27T15:02:44.904Z,3.00
2018-06-27T15:03:17.973Z,3.03
2018-06-27T15:03:51.785Z,3.22
2018-06-27T15:04:24.829Z,2.80
2018-06-27T15:04:57.895Z,2.90
2018-06-27T15:05:30.952Z,3.20
2018-06-27T15:06:04.765Z,4.50
2018-06-27T15:06:37.836Z,3.87
2018-06-27T15:07:11.693Z,4.47
2018-06-27T15:07:47.124Z,4.53
2018-06-27T15:08:22.109Z,3.15
2018-06-27T15:08:55.153Z,3.58
2018-06-27T15:09:29.380Z,4.45
2018-06-27T15:10:02.422Z,3.87
2018-06-27T15:10:39.701Z,3.95
2018-06-27T15:11:12.737Z,3.92
2018-06-27T15:11:45.829Z,3.35
2018-06-27T15:12:18.908Z,3.42
2018-06-27T15:12:51.979Z,2.70
2018-06-27T15:13:25.036Z,2.90
2018-06-27T15:13:58.065Z,2.78
2018-06-27T15:14:31.978Z,2.80
2018-06-27T15:15:09.199Z,2.80
2018-06-27T15:15:43.061Z,2.62
2018-06-27T15:16:21.589Z,2.90
2018-06-27T15:16:55.729Z,3.00
2018-06-27T15:17:28.838Z,2.72
2018-06-27T15:18:02.661Z,2.62
2018-06-27T15:18:35.918Z,2.75
2018-06-27T15:19:09.209Z,2.42
2018-06-27T15:19:45.017Z,2.40
2018-06-27T15:20:18.093Z,2.50
2018-06-27T15:20:51.169Z,2.30
2018-06-27T15:21:25.909Z,2.53
2018-06-27T15:22:20.372Z,2.83
2018-06-27T15:22:59.723Z,2.42
2018-06-27T15:23:39.689Z,2.60
2018-06-27T15:24:16.494Z,2.37
2018-06-27T15:24:49.622Z,2.40
2018-06-27T15:25:23.727Z,2.50
2018-06-27T15:25:58.007Z,2.10
2018-06-27T15:26:32.721Z,2.40
2018-06-27T15:27:07.367Z,2.10
2018-06-27T15:27:42.537Z,2.00
2018-06-27T15:28:15.645Z,2.28
2018-06-27T15:28:54.503Z,2.28
2018-06-27T15:29:27.960Z,2.10
2018-06-27T15:30:01.033Z,1.90
2018-06-27T15:30:35.083Z,1.90
2018-06-27T15:31:17.012Z,2.10
2018-06-27T15:31:52.223Z,2.10
2018-06-27T15:32:26.729Z,1.92
2018-06-27T15:33:02.112Z,2.37
2018-06-27T15:33:35.217Z,1.67
2018-06-27T15:34:08.359Z,2.03
2018-06-27T15:34:41.455Z,2.00
2018-06-27T15:35:14.537Z,1.75
2018-06-27T15:35:47.660Z,2.03
2018-06-27T15:36:53.034Z,1.90
2018-06-27T15:37:27.599Z,2.05
2018-06-27T15:38:13.943Z,1.77
2018-06-27T15:38:47.863Z,1.80
2018-06-27T15:39:22.763Z,1.65
2018-06-27T15:39:55.893Z,1.90
2018-06-27T15:40:29.054Z,1.65
2018-06-27T15:41:02.165Z,1.80
2018-06-27T15:41:35.314Z,1.70
2018-06-27T15:42:08.461Z,2.08
2018-06-27T15:42:41.716Z,2.20
2018-06-27T15:43:14.834Z,1.70
2018-06-27T15:43:49.638Z,1.60
2018-06-27T15:44:23.562Z,1.80
2018-06-27T15:45:20.059Z,1.70
2018-06-27T15:46:23.824Z,1.70
2018-06-27T15:52:17.856Z,1.70
2018-06-27T15:52:52.006Z,1.60
2018-06-27T15:53:26.901Z,1.90
2018-06-27T15:54:00.057Z,1.80
2018-06-27T15:54:33.906Z,1.70
2018-06-27T15:55:08.577Z,1.60
2018-06-27T15:56:03.362Z,1.52
2018-06-27T15:56:48.498Z,1.50
2018-06-27T15:58:44.218Z,1.50
